This is the latest recevied weather packets stored in our database for station/object DB0PDF-L4. If no packets are shown the sender has not sent any weather packets the latest 10 day(s).
| Time | Temp. | Humidity | Pressure | Rain* | Wind** | Luminosity | Snow |
|---|---|---|---|---|---|---|---|
| 1777695885 | 16.11° C | 41% | 1010 hPa | - | - | - | - |
| 1777694984 | 16.11° C | 42% | 1010 hPa | - | - | - | - |
| 1777694083 | 16.11° C | 42% | 1010 hPa | - | - | - | - |
| 1777693182 | 16.11° C | 42% | 1010 hPa | - | - | - | - |
| 1777692281 | 16.11° C | 41% | 1010 hPa | - | - | - | - |
| 1777691380 | 16.67° C | 41% | 1010 hPa | - | - | - | - |
| 1777690479 | 16.67° C | 40% | 1010 hPa | - | - | - | - |
| 1777689578 | 16.67° C | 40% | 1010 hPa | - | - | - | - |
| 1777688677 | 17.22° C | 39% | 1010 hPa | - | - | - | - |
| 1777687776 | 17.22° C | 39% | 1011 hPa | - | - | - | - |
| 1777673358 | 20° C | 31% | 1012 hPa | - | - | - | - |
| 1777664347 | 23.33° C | 25% | 1013 hPa | - | - | - | - |
| 1777660742 | 26.11° C | 21% | 1013 hPa | - | - | - | - |
| 1777659841 | 27.22° C | 20% | 1013 hPa | - | - | - | - |
| 1777658940 | 27.78° C | 19% | 1013 hPa | - | - | - | - |
| 1777658039 | 27.78° C | 19% | 1013 hPa | - | - | - | - |
| 1777653533 | 29.44° C | 16% | 1013 hPa | - | - | - | - |
| 1777652632 | 29.44° C | 16% | 1014 hPa | - | - | - | - |
| 1777651731 | 29.44° C | 17% | 1014 hPa | - | - | - | - |
| 1777650830 | 28.89° C | 17% | 1014 hPa | - | - | - | - |
| 1777649929 | 28.89° C | 17% | 1014 hPa | - | - | - | - |
| 1777649028 | 29.44° C | 16% | 1014 hPa | - | - | - | - |
| 1777648127 | 29.44° C | 16% | 1014 hPa | - | - | - | - |
| 1777646324 | 28.89° C | 16% | 1015 hPa | - | - | - | - |
| 1777645423 | 28.33° C | 17% | 1015 hPa | - | - | - | - |
* Rain since midnight (hover to see other rain measurements)
** Current wind speed in m/s (hover to see current wind gust speed)